Terminal Aerodrome Forecast
Issued by NWS

Home | Current Version | Previous Version | Text Only | Print | Product List | Glossary Off
Versions: 1 2 3 4 5 6 7 8 9 10 11 12 13 14 15 16 17

699
FTUS43 KMPX 210433 AAA
TAFAXN
TAF AMD
KAXN 210433Z 2105/2124 18019G25KT P6SM BKN100
     FM211200 17017KT P6SM VCSH OVC025
     FM211600 18014G23KT 6SM -RA VCTS OVC015CB
     FM212100 26011KT P6SM OVC040=

USA.gov is the U.S. government's official web portal to all federal, state and local government web resources and services.